sensor_id;sensor_type;location;lat;lon;timestamp;pressure;altitude;pressure_sealevel;temperature;humidity
64368;BME280;50692;53.314;-6.300;2023-01-30T00:00:06;102054.09;;;7.73;73.67
64368;BME280;50692;53.314;-6.300;2023-01-30T00:02:52;102057.53;;;7.76;73.44
64368;BME280;50692;53.314;-6.300;2023-01-30T00:05:38;102046.19;;;7.74;73.85
64368;BME280;50692;53.314;-6.300;2023-01-30T00:08:24;102048.06;;;7.66;74.37
64368;BME280;50692;53.314;-6.300;2023-01-30T00:11:12;102057.88;;;7.59;74.76
64368;BME280;50692;53.314;-6.300;2023-01-30T00:13:58;102051.84;;;7.53;75.08
64368;BME280;50692;53.314;-6.300;2023-01-30T00:16:47;102065.16;;;7.45;75.77
64368;BME280;50692;53.314;-6.300;2023-01-30T00:19:33;102064.34;;;7.41;76.14
64368;BME280;50692;53.314;-6.300;2023-01-30T00:22:18;102056.56;;;7.34;76.40
64368;BME280;50692;53.314;-6.300;2023-01-30T00:25:04;102049.63;;;7.31;76.69
64368;BME280;50692;53.314;-6.300;2023-01-30T00:27:50;102060.09;;;7.33;76.62
64368;BME280;50692;53.314;-6.300;2023-01-30T00:30:36;102063.59;;;7.35;76.69
64368;BME280;50692;53.314;-6.300;2023-01-30T00:33:24;102065.31;;;7.36;76.39
64368;BME280;50692;53.314;-6.300;2023-01-30T00:36:11;102074.94;;;7.37;75.43
64368;BME280;50692;53.314;-6.300;2023-01-30T00:38:57;102066.09;;;7.41;74.33
64368;BME280;50692;53.314;-6.300;2023-01-30T00:41:43;102060.09;;;7.33;73.80
64368;BME280;50692;53.314;-6.300;2023-01-30T00:44:48;102075.69;;;7.43;73.09
64368;BME280;50692;53.314;-6.300;2023-01-30T00:47:52;102067.81;;;7.43;72.98
64368;BME280;50692;53.314;-6.300;2023-01-30T00:50:38;102065.22;;;7.42;73.06
64368;BME280;50692;53.314;-6.300;2023-01-30T00:53:27;102061.72;;;7.41;73.29
64368;BME280;50692;53.314;-6.300;2023-01-30T00:56:13;102061.81;;;7.34;73.81
64368;BME280;50692;53.314;-6.300;2023-01-30T00:58:58;102061.91;;;7.31;73.88
64368;BME280;50692;53.314;-6.300;2023-01-30T01:01:44;102050.59;;;7.26;73.76
64368;BME280;50692;53.314;-6.300;2023-01-30T01:04:30;102062.78;;;7.30;73.67
64368;BME280;50692;53.314;-6.300;2023-01-30T01:07:16;102068.03;;;7.30;73.61
64368;BME280;50692;53.314;-6.300;2023-01-30T01:10:02;102067.09;;;7.34;73.29
64368;BME280;50692;53.314;-6.300;2023-01-30T01:12:49;102069.63;;;7.40;73.01
64368;BME280;50692;53.314;-6.300;2023-01-30T01:15:36;102069.53;;;7.44;72.79
64368;BME280;50692;53.314;-6.300;2023-01-30T01:18:22;102047.97;;;7.26;72.59
64368;BME280;50692;53.314;-6.300;2023-01-30T01:21:08;102066.16;;;7.38;72.85
64368;BME280;50692;53.314;-6.300;2023-01-30T01:23:58;102072.97;;;7.50;72.69
64368;BME280;50692;53.314;-6.300;2023-01-30T01:26:45;102081.69;;;7.52;72.82
64368;BME280;50692;53.314;-6.300;2023-01-30T01:29:30;102072.06;;;7.51;72.70
64368;BME280;50692;53.314;-6.300;2023-01-30T01:32:19;102077.25;;;7.54;72.84
64368;BME280;50692;53.314;-6.300;2023-01-30T01:35:05;102063.25;;;7.53;72.44
64368;BME280;50692;53.314;-6.300;2023-01-30T01:37:54;102074.59;;;7.55;72.36
64368;BME280;50692;53.314;-6.300;2023-01-30T01:40:45;102066.88;;;7.46;72.27
64368;BME280;50692;53.314;-6.300;2023-01-30T01:44:07;102083.63;;;7.40;72.63
64368;BME280;50692;53.314;-6.300;2023-01-30T01:46:57;102094.28;;;7.34;72.19
64368;BME280;50692;53.314;-6.300;2023-01-30T01:49:44;102081.31;;;7.24;72.18
64368;BME280;50692;53.314;-6.300;2023-01-30T01:52:30;102090.94;;;7.23;72.14
64368;BME280;50692;53.314;-6.300;2023-01-30T01:55:16;102085.72;;;7.21;72.14
64368;BME280;50692;53.314;-6.300;2023-01-30T01:58:08;102096.28;;;7.18;72.22
64368;BME280;50692;53.314;-6.300;2023-01-30T02:00:57;102095.47;;;7.15;72.39
64368;BME280;50692;53.314;-6.300;2023-01-30T02:03:47;102098.97;;;7.15;72.30
64368;BME280;50692;53.314;-6.300;2023-01-30T02:06:34;102070.34;;;6.99;72.47
64368;BME280;50692;53.314;-6.300;2023-01-30T02:09:21;102106.91;;;7.12;72.52
64368;BME280;50692;53.314;-6.300;2023-01-30T02:12:07;102102.59;;;7.08;72.46
64368;BME280;50692;53.314;-6.300;2023-01-30T02:14:56;102085.41;;;6.89;72.53
64368;BME280;50692;53.314;-6.300;2023-01-30T02:17:43;102103.66;;;6.96;72.49
64368;BME280;50692;53.314;-6.300;2023-01-30T02:24:16;102110.66;;;6.97;72.62
64368;BME280;50692;53.314;-6.300;2023-01-30T02:33:38;102107.91;;;7.05;72.77
64368;BME280;50692;53.314;-6.300;2023-01-30T02:45:53;102118.78;;;7.36;71.53
64368;BME280;50692;53.314;-6.300;2023-01-30T02:49:12;102130.19;;;7.37;71.30
64368;BME280;50692;53.314;-6.300;2023-01-30T02:52:00;102091.81;;;7.25;71.14
64368;BME280;50692;53.314;-6.300;2023-01-30T02:54:47;102111.81;;;7.35;71.19
64368;BME280;50692;53.314;-6.300;2023-01-30T02:57:33;102117.16;;;7.29;71.15
64368;BME280;50692;53.314;-6.300;2023-01-30T03:00:48;102120.63;;;7.31;71.02
64368;BME280;50692;53.314;-6.300;2023-01-30T03:06:42;102128.50;;;7.33;70.53
64368;BME280;50692;53.314;-6.300;2023-01-30T03:13:09;102138.06;;;7.38;70.49
64368;BME280;50692;53.314;-6.300;2023-01-30T03:15:57;102146.81;;;7.39;70.57
64368;BME280;50692;53.314;-6.300;2023-01-30T03:18:45;102146.00;;;7.35;70.75
64368;BME280;50692;53.314;-6.300;2023-01-30T03:21:32;102148.59;;;7.38;70.73
64368;BME280;50692;53.314;-6.300;2023-01-30T03:24:18;102158.16;;;7.42;70.83
64368;BME280;50692;53.314;-6.300;2023-01-30T03:27:10;102154.66;;;7.42;71.01
64368;BME280;50692;53.314;-6.300;2023-01-30T03:29:56;102159.88;;;7.43;71.04
64368;BME280;50692;53.314;-6.300;2023-01-30T03:32:42;102155.53;;;7.42;70.79
64368;BME280;50692;53.314;-6.300;2023-01-30T03:35:28;102152.91;;;7.42;70.81
64368;BME280;50692;53.314;-6.300;2023-01-30T03:38:15;102159.84;;;7.47;70.66
64368;BME280;50692;53.314;-6.300;2023-01-30T03:41:02;102157.25;;;7.45;70.81
64368;BME280;50692;53.314;-6.300;2023-01-30T03:43:48;102163.41;;;7.42;70.87
64368;BME280;50692;53.314;-6.300;2023-01-30T03:46:34;102155.53;;;7.42;70.89
64368;BME280;50692;53.314;-6.300;2023-01-30T03:49:20;102167.00;;;7.37;70.62
64368;BME280;50692;53.314;-6.300;2023-01-30T03:52:06;102147.00;;;7.28;70.61
64368;BME280;50692;53.314;-6.300;2023-01-30T03:54:52;102164.41;;;7.35;70.44
64368;BME280;50692;53.314;-6.300;2023-01-30T03:57:37;102167.00;;;7.37;70.31
64368;BME280;50692;53.314;-6.300;2023-01-30T04:00:23;102170.44;;;7.40;70.26
64368;BME280;50692;53.314;-6.300;2023-01-30T04:03:09;102172.34;;;7.32;70.55
64368;BME280;50692;53.314;-6.300;2023-01-30T04:05:55;102185.47;;;7.34;70.60
64368;BME280;50692;53.314;-6.300;2023-01-30T04:08:41;102192.50;;;7.33;71.06
64368;BME280;50692;53.314;-6.300;2023-01-30T04:11:26;102193.34;;;7.34;71.44
64368;BME280;50692;53.314;-6.300;2023-01-30T04:14:12;102194.28;;;7.31;71.34
64368;BME280;50692;53.314;-6.300;2023-01-30T04:16:58;102186.38;;;7.33;71.31
64368;BME280;50692;53.314;-6.300;2023-01-30T04:19:44;102199.59;;;7.28;71.55
64368;BME280;50692;53.314;-6.300;2023-01-30T04:22:30;102193.56;;;7.21;71.76
64368;BME280;50692;53.314;-6.300;2023-01-30T04:25:16;102190.94;;;7.21;71.97
64368;BME280;50692;53.314;-6.300;2023-01-30T04:28:01;102181.41;;;7.14;72.25
64368;BME280;50692;53.314;-6.300;2023-01-30T04:30:47;102170.91;;;7.11;72.68
64368;BME280;50692;53.314;-6.300;2023-01-30T04:33:33;102168.31;;;7.10;73.01
64368;BME280;50692;53.314;-6.300;2023-01-30T04:36:19;102167.50;;;7.05;73.28
64368;BME280;50692;53.314;-6.300;2023-01-30T04:39:05;102178.94;;;7.04;73.41
64368;BME280;50692;53.314;-6.300;2023-01-30T04:41:51;102168.41;;;7.04;73.67
64368;BME280;50692;53.314;-6.300;2023-01-30T04:44:37;102169.34;;;6.98;74.32
64368;BME280;50692;53.314;-6.300;2023-01-30T04:47:23;102167.63;;;6.97;74.61
64368;BME280;50692;53.314;-6.300;2023-01-30T04:50:09;102162.50;;;6.89;74.77
64368;BME280;50692;53.314;-6.300;2023-01-30T04:52:55;102177.31;;;6.93;75.05
64368;BME280;50692;53.314;-6.300;2023-01-30T04:55:41;102177.31;;;6.93;75.15
64368;BME280;50692;53.314;-6.300;2023-01-30T04:58:27;102182.53;;;6.96;74.94
64368;BME280;50692;53.314;-6.300;2023-01-30T05:01:21;102173.75;;;6.97;75.02
64368;BME280;50692;53.314;-6.300;2023-01-30T05:04:08;102169.34;;;7.00;74.81
64368;BME280;50692;53.314;-6.300;2023-01-30T05:06:54;102173.78;;;6.96;74.87
64368;BME280;50692;53.314;-6.300;2023-01-30T05:09:39;102173.81;;;6.93;74.89
64368;BME280;50692;53.314;-6.300;2023-01-30T05:12:25;102188.59;;;7.03;74.44
64368;BME280;50692;53.314;-6.300;2023-01-30T05:15:12;102197.41;;;6.99;74.55
64368;BME280;50692;53.314;-6.300;2023-01-30T05:17:58;102212.25;;;7.03;74.59
64368;BME280;50692;53.314;-6.300;2023-01-30T05:20:44;102200.75;;;7.09;74.35
64368;BME280;50692;53.314;-6.300;2023-01-30T05:23:29;102201.69;;;7.06;74.38
64368;BME280;50692;53.314;-6.300;2023-01-30T05:26:15;102211.31;;;7.07;74.34
64368;BME280;50692;53.314;-6.300;2023-01-30T05:29:01;102217.47;;;7.06;74.54
64368;BME280;50692;53.314;-6.300;2023-01-30T05:31:47;102213.97;;;7.06;74.61
64368;BME280;50692;53.314;-6.300;2023-01-30T05:34:33;102204.31;;;7.06;74.69
64368;BME280;50692;53.314;-6.300;2023-01-30T05:37:18;102197.28;;;7.05;74.67
64368;BME280;50692;53.314;-6.300;2023-01-30T05:40:04;102179.09;;;6.93;74.58
64368;BME280;50692;53.314;-6.300;2023-01-30T05:42:51;102185.22;;;6.93;75.21
64368;BME280;50692;53.314;-6.300;2023-01-30T05:45:36;102187.09;;;6.84;75.13
64368;BME280;50692;53.314;-6.300;2023-01-30T05:48:23;102181.91;;;6.79;75.28
64368;BME280;50692;53.314;-6.300;2023-01-30T05:51:20;102194.97;;;6.84;75.48
64368;BME280;50692;53.314;-6.300;2023-01-30T05:54:06;102203.91;;;6.72;76.03
64368;BME280;50692;53.314;-6.300;2023-01-30T05:56:52;102198.75;;;6.64;76.38
64368;BME280;50692;53.314;-6.300;2023-01-30T05:59:38;102208.47;;;6.58;76.80
64368;BME280;50692;53.314;-6.300;2023-01-30T06:02:24;102205.84;;;6.58;76.63
64368;BME280;50692;53.314;-6.300;2023-01-30T06:05:09;102167.66;;;6.31;76.98
64368;BME280;50692;53.314;-6.300;2023-01-30T06:07:55;102213.75;;;6.55;76.70
64368;BME280;50692;53.314;-6.300;2023-01-30T06:10:41;102215.50;;;6.56;76.76
64368;BME280;50692;53.314;-6.300;2023-01-30T06:13:27;102225.16;;;6.54;77.18
64368;BME280;50692;53.314;-6.300;2023-01-30T06:16:15;102225.19;;;6.52;77.32
64368;BME280;50692;53.314;-6.300;2023-01-30T06:19:01;102232.09;;;6.59;77.08
64368;BME280;50692;53.314;-6.300;2023-01-30T06:21:47;102232.88;;;6.67;77.00
64368;BME280;50692;53.314;-6.300;2023-01-30T06:24:33;102227.59;;;6.70;76.92
64368;BME280;50692;53.314;-6.300;2023-01-30T06:27:18;102224.03;;;6.73;76.96
64368;BME280;50692;53.314;-6.300;2023-01-30T06:30:05;102219.63;;;6.75;76.61
64368;BME280;50692;53.314;-6.300;2023-01-30T06:32:51;102227.63;;;6.67;77.03
64368;BME280;50692;53.314;-6.300;2023-01-30T06:35:37;102235.56;;;6.63;77.04
64368;BME280;50692;53.314;-6.300;2023-01-30T06:38:23;102232.22;;;6.50;77.57
64368;BME280;50692;53.314;-6.300;2023-01-30T06:41:09;102230.47;;;6.49;77.83
64368;BME280;50692;53.314;-6.300;2023-01-30T06:43:54;102242.75;;;6.48;78.09
64368;BME280;50692;53.314;-6.300;2023-01-30T06:46:40;102224.41;;;6.41;78.61
64368;BME280;50692;53.314;-6.300;2023-01-30T06:49:26;102239.31;;;6.42;78.72
64368;BME280;50692;53.314;-6.300;2023-01-30T06:52:12;102235.84;;;6.38;79.05
64368;BME280;50692;53.314;-6.300;2023-01-30T06:54:58;102239.34;;;6.37;79.09
64368;BME280;50692;53.314;-6.300;2023-01-30T06:57:44;102245.53;;;6.35;79.29
64368;BME280;50692;53.314;-6.300;2023-01-30T07:00:31;102242.94;;;6.29;79.67
64368;BME280;50692;53.314;-6.300;2023-01-30T07:03:17;102241.25;;;6.24;80.08
64368;BME280;50692;53.314;-6.300;2023-01-30T07:06:03;102240.38;;;6.22;79.92
64368;BME280;50692;53.314;-6.300;2023-01-30T07:08:49;102235.22;;;6.16;79.89
64368;BME280;50692;53.314;-6.300;2023-01-30T07:11:35;102261.38;;;6.25;80.07
64368;BME280;50692;53.314;-6.300;2023-01-30T07:14:21;102257.06;;;6.20;80.70
64368;BME280;50692;53.314;-6.300;2023-01-30T07:17:07;102257.09;;;6.17;81.22
64368;BME280;50692;53.314;-6.300;2023-01-30T07:19:53;102260.53;;;6.23;80.89
64368;BME280;50692;53.314;-6.300;2023-01-30T07:22:39;102273.59;;;6.27;80.27
64368;BME280;50692;53.314;-6.300;2023-01-30T07:25:27;102275.38;;;6.26;80.86
64368;BME280;50692;53.314;-6.300;2023-01-30T07:28:13;102286.78;;;6.23;81.15
64368;BME280;50692;53.314;-6.300;2023-01-30T07:30:59;102291.19;;;6.20;81.39
64368;BME280;50692;53.314;-6.300;2023-01-30T07:33:45;102285.06;;;6.19;81.47
64368;BME280;50692;53.314;-6.300;2023-01-30T07:36:31;102304.34;;;6.15;81.59
64368;BME280;50692;53.314;-6.300;2023-01-30T07:39:19;102291.25;;;6.12;81.57
64368;BME280;50692;53.314;-6.300;2023-01-30T07:42:05;102295.69;;;6.07;81.74
64368;BME280;50692;53.314;-6.300;2023-01-30T07:44:50;102294.88;;;6.02;81.76
64368;BME280;50692;53.314;-6.300;2023-01-30T07:47:36;102279.16;;;5.96;81.56
64368;BME280;50692;53.314;-6.300;2023-01-30T07:50:22;102307.88;;;6.14;81.21
64368;BME280;50692;53.314;-6.300;2023-01-30T07:53:10;102308.75;;;6.12;81.26
64368;BME280;50692;53.314;-6.300;2023-01-30T07:55:56;102322.72;;;6.20;81.35
64368;BME280;50692;53.314;-6.300;2023-01-30T07:58:42;102322.63;;;6.26;81.03
64368;BME280;50692;53.314;-6.300;2023-01-30T08:01:28;102323.44;;;6.33;81.16
64368;BME280;50692;53.314;-6.300;2023-01-30T08:04:14;102320.78;;;6.39;80.57
64368;BME280;50692;53.314;-6.300;2023-01-30T08:06:59;102320.69;;;6.46;80.41
64368;BME280;50692;53.314;-6.300;2023-01-30T08:09:45;102303.19;;;6.44;80.01
64368;BME280;50692;53.314;-6.300;2023-01-30T08:12:31;102326.84;;;6.44;79.95
64368;BME280;50692;53.314;-6.300;2023-01-30T08:15:17;102325.91;;;6.48;79.97
64368;BME280;50692;53.314;-6.300;2023-01-30T08:18:03;102332.06;;;6.48;79.78
64368;BME280;50692;53.314;-6.300;2023-01-30T08:20:49;102337.28;;;6.50;79.79
64368;BME280;50692;53.314;-6.300;2023-01-30T08:23:35;102332.84;;;6.55;79.46
64368;BME280;50692;53.314;-6.300;2023-01-30T08:26:21;102341.56;;;6.60;79.21
64368;BME280;50692;53.314;-6.300;2023-01-30T08:29:06;102339.78;;;6.62;79.01
64368;BME280;50692;53.314;-6.300;2023-01-30T08:31:56;102333.63;;;6.65;78.69
64368;BME280;50692;53.314;-6.300;2023-01-30T08:34:42;102340.63;;;6.66;78.61
64368;BME280;50692;53.314;-6.300;2023-01-30T08:37:28;102342.38;;;6.65;78.32
64368;BME280;50692;53.314;-6.300;2023-01-30T08:40:14;102342.34;;;6.70;78.24
64368;BME280;50692;53.314;-6.300;2023-01-30T08:43:00;102333.56;;;6.71;78.25
64368;BME280;50692;53.314;-6.300;2023-01-30T08:45:46;102335.31;;;6.72;78.26
64368;BME280;50692;53.314;-6.300;2023-01-30T08:48:33;102325.66;;;6.74;78.18
64368;BME280;50692;53.314;-6.300;2023-01-30T08:51:19;102325.66;;;6.74;78.13
64368;BME280;50692;53.314;-6.300;2023-01-30T08:54:04;102335.28;;;6.75;78.20
64368;BME280;50692;53.314;-6.300;2023-01-30T08:56:52;102336.97;;;6.79;78.05
64368;BME280;50692;53.314;-6.300;2023-01-30T08:59:38;102339.59;;;6.79;78.11
64368;BME280;50692;53.314;-6.300;2023-01-30T09:02:24;102351.81;;;6.83;77.98
64368;BME280;50692;53.314;-6.300;2023-01-30T09:05:10;102355.31;;;6.84;77.76
64368;BME280;50692;53.314;-6.300;2023-01-30T09:07:56;102362.38;;;6.80;77.72
64368;BME280;50692;53.314;-6.300;2023-01-30T09:10:43;102364.97;;;6.83;77.87
64368;BME280;50692;53.314;-6.300;2023-01-30T09:13:29;102366.75;;;6.81;77.67
64368;BME280;50692;53.314;-6.300;2023-01-30T09:16:15;102371.09;;;6.85;78.18
64368;BME280;50692;53.314;-6.300;2023-01-30T09:19:01;102371.91;;;6.87;78.16
64368;BME280;50692;53.314;-6.300;2023-01-30T09:21:48;102379.84;;;6.86;78.40
64368;BME280;50692;53.314;-6.300;2023-01-30T09:24:34;102369.28;;;6.87;78.55
64368;BME280;50692;53.314;-6.300;2023-01-30T09:27:23;102375.38;;;6.92;78.55
64368;BME280;50692;53.314;-6.300;2023-01-30T09:30:11;102373.66;;;6.90;78.33
64368;BME280;50692;53.314;-6.300;2023-01-30T09:32:57;102387.63;;;6.95;78.62
64368;BME280;50692;53.314;-6.300;2023-01-30T09:35:46;102388.47;;;6.99;78.68
64368;BME280;50692;53.314;-6.300;2023-01-30T09:38:33;102389.38;;;6.96;78.58
64368;BME280;50692;53.314;-6.300;2023-01-30T09:47:45;102398.13;;;6.96;78.43
64368;BME280;50692;53.314;-6.300;2023-01-30T09:59:59;102404.88;;;7.19;77.28
64368;BME280;50692;53.314;-6.300;2023-01-30T10:03:10;102416.19;;;7.26;77.02
64368;BME280;50692;53.314;-6.300;2023-01-30T10:06:04;102417.03;;;7.31;76.71
64368;BME280;50692;53.314;-6.300;2023-01-30T10:09:00;102421.38;;;7.32;76.13
64368;BME280;50692;53.314;-6.300;2023-01-30T10:14:56;102419.44;;;7.46;75.02
64368;BME280;50692;53.314;-6.300;2023-01-30T10:18:02;102429.13;;;7.45;75.11
64368;BME280;50692;53.314;-6.300;2023-01-30T10:27:48;102436.06;;;7.50;75.42
64368;BME280;50692;53.314;-6.300;2023-01-30T10:30:35;102440.47;;;7.48;75.48
64368;BME280;50692;53.314;-6.300;2023-01-30T10:34:04;102448.47;;;7.40;75.92
64368;BME280;50692;53.314;-6.300;2023-01-30T10:37:07;102452.03;;;7.36;76.17
64368;BME280;50692;53.314;-6.300;2023-01-30T10:40:22;102450.25;;;7.36;76.36
64368;BME280;50692;53.314;-6.300;2023-01-30T10:43:19;102444.94;;;7.42;76.13
64368;BME280;50692;53.314;-6.300;2023-01-30T10:46:18;102443.94;;;7.51;76.05
64368;BME280;50692;53.314;-6.300;2023-01-30T11:01:24;102434.47;;;7.36;77.30
64368;BME280;50692;53.314;-6.300;2023-01-30T11:04:35;102423.06;;;7.39;77.18
64368;BME280;50692;53.314;-6.300;2023-01-30T11:07:23;102423.91;;;7.39;77.12
64368;BME280;50692;53.314;-6.300;2023-01-30T11:10:16;102429.16;;;7.42;77.25
64368;BME280;50692;53.314;-6.300;2023-01-30T11:13:31;102422.09;;;7.46;77.00
64368;BME280;50692;53.314;-6.300;2023-01-30T11:16:18;102422.84;;;7.54;77.06
64368;BME280;50692;53.314;-6.300;2023-01-30T11:19:05;102434.28;;;7.53;77.00
64368;BME280;50692;53.314;-6.300;2023-01-30T11:21:53;102428.91;;;7.61;76.85
64368;BME280;50692;53.314;-6.300;2023-01-30T11:24:42;102427.97;;;7.66;76.67
64368;BME280;50692;53.314;-6.300;2023-01-30T11:27:30;102421.72;;;7.74;76.59
64368;BME280;50692;53.314;-6.300;2023-01-30T11:30:18;102428.66;;;7.79;76.49
64368;BME280;50692;53.314;-6.300;2023-01-30T11:33:13;102424.19;;;7.86;76.21
64368;BME280;50692;53.314;-6.300;2023-01-30T11:36:05;102408.50;;;7.78;76.01
64368;BME280;50692;53.314;-6.300;2023-01-30T11:39:00;102433.72;;;7.93;75.68
64368;BME280;50692;53.314;-6.300;2023-01-30T11:44:40;102417.94;;;7.93;76.02
64368;BME280;50692;53.314;-6.300;2023-01-30T11:47:27;102430.91;;;8.05;76.05
64368;BME280;50692;53.314;-6.300;2023-01-30T11:50:18;102438.75;;;8.08;75.85
64368;BME280;50692;53.314;-6.300;2023-01-30T11:53:25;102434.47;;;8.01;75.62
64368;BME280;50692;53.314;-6.300;2023-01-30T11:56:38;102424.91;;;7.96;76.00
64368;BME280;50692;53.314;-6.300;2023-01-30T11:59:46;102426.50;;;8.06;76.29
64368;BME280;50692;53.314;-6.300;2023-01-30T12:02:36;102431.59;;;8.16;76.07
64368;BME280;50692;53.314;-6.300;2023-01-30T12:11:02;102434.09;;;8.81;73.00
64368;BME280;50692;53.314;-6.300;2023-01-30T12:13:55;102436.69;;;8.83;72.41
64368;BME280;50692;53.314;-6.300;2023-01-30T12:22:40;102423.44;;;8.86;72.69
64368;BME280;50692;53.314;-6.300;2023-01-30T12:26:01;102429.97;;;9.56;72.51
64368;BME280;50692;53.314;-6.300;2023-01-30T12:31:47;102428.66;;;11.76;64.78
64368;BME280;50692;53.314;-6.300;2023-01-30T12:34:34;102426.06;;;11.75;62.79
64368;BME280;50692;53.314;-6.300;2023-01-30T12:47:18;102427.44;;;11.27;64.13
64368;BME280;50692;53.314;-6.300;2023-01-30T12:53:35;102402.22;;;12.83;58.90
64368;BME280;50692;53.314;-6.300;2023-01-30T13:05:50;102402.81;;;11.55;60.42
64368;BME280;50692;53.314;-6.300;2023-01-30T13:09:21;102413.94;;;11.68;60.06
64368;BME280;50692;53.314;-6.300;2023-01-30T13:15:30;102402.69;;;11.89;58.99
64368;BME280;50692;53.314;-6.300;2023-01-30T13:18:26;102396.72;;;11.81;59.03
64368;BME280;50692;53.314;-6.300;2023-01-30T13:24:49;102392.69;;;11.40;60.62
64368;BME280;50692;53.314;-6.300;2023-01-30T13:27:39;102392.22;;;11.25;61.45
64368;BME280;50692;53.314;-6.300;2023-01-30T13:30:29;102397.06;;;11.11;61.72
64368;BME280;50692;53.314;-6.300;2023-01-30T13:33:20;102393.88;;;10.98;62.32
64368;BME280;50692;53.314;-6.300;2023-01-30T13:45:57;102391.69;;;10.49;62.30
64368;BME280;50692;53.314;-6.300;2023-01-30T13:49:26;102400.25;;;10.59;62.15
64368;BME280;50692;53.314;-6.300;2023-01-30T13:52:28;102396.59;;;10.64;61.13
64368;BME280;50692;53.314;-6.300;2023-01-30T13:58:49;102381.72;;;10.59;59.77
64368;BME280;50692;53.314;-6.300;2023-01-30T14:04:55;102379.34;;;10.82;59.90
64368;BME280;50692;53.314;-6.300;2023-01-30T14:07:42;102366.31;;;10.74;59.57
64368;BME280;50692;53.314;-6.300;2023-01-30T14:10:32;102366.31;;;10.74;60.37
64368;BME280;50692;53.314;-6.300;2023-01-30T14:13:19;102370.53;;;10.81;60.25
64368;BME280;50692;53.314;-6.300;2023-01-30T14:16:05;102352.41;;;10.68;60.06
64368;BME280;50692;53.314;-6.300;2023-01-30T14:18:51;102364.84;;;10.64;59.81
64368;BME280;50692;53.314;-6.300;2023-01-30T14:21:38;102362.22;;;10.63;60.25
64368;BME280;50692;53.314;-6.300;2023-01-30T14:24:25;102368.38;;;10.63;60.59
64368;BME280;50692;53.314;-6.300;2023-01-30T14:27:27;102348.09;;;10.64;60.25
64368;BME280;50692;53.314;-6.300;2023-01-30T14:30:35;102366.31;;;10.74;60.52
64368;BME280;50692;53.314;-6.300;2023-01-30T14:39:37;102354.34;;;10.61;60.95
64368;BME280;50692;53.314;-6.300;2023-01-30T14:42:25;102357.84;;;10.62;61.20
64368;BME280;50692;53.314;-6.300;2023-01-30T14:45:15;102359.00;;;10.51;60.82
64368;BME280;50692;53.314;-6.300;2023-01-30T15:02:33;102384.16;;;10.33;59.97
64368;BME280;50692;53.314;-6.300;2023-01-30T15:08:21;102384.13;;;10.35;60.34
64368;BME280;50692;53.314;-6.300;2023-01-30T15:11:19;102386.78;;;10.33;60.64
64368;BME280;50692;53.314;-6.300;2023-01-30T15:14:27;102364.22;;;10.19;60.74
64368;BME280;50692;53.314;-6.300;2023-01-30T15:17:40;102384.28;;;10.27;60.70
64368;BME280;50692;53.314;-6.300;2023-01-30T15:24:12;102384.44;;;10.20;61.18
64368;BME280;50692;53.314;-6.300;2023-01-30T15:33:19;102380.16;;;10.16;62.35
64368;BME280;50692;53.314;-6.300;2023-01-30T15:36:31;102374.19;;;10.07;62.77
64368;BME280;50692;53.314;-6.300;2023-01-30T15:39:20;102364.69;;;9.99;63.09
64368;BME280;50692;53.314;-6.300;2023-01-30T15:42:06;102365.53;;;10.01;63.22
64368;BME280;50692;53.314;-6.300;2023-01-30T15:45:06;102357.94;;;9.89;64.06
64368;BME280;50692;53.314;-6.300;2023-01-30T15:51:11;102361.63;;;9.81;64.71
64368;BME280;50692;53.314;-6.300;2023-01-30T15:54:00;102358.09;;;9.81;64.93
64368;BME280;50692;53.314;-6.300;2023-01-30T15:56:47;102354.50;;;9.85;64.99
64368;BME280;50692;53.314;-6.300;2023-01-30T15:59:36;102358.88;;;9.86;65.25
64368;BME280;50692;53.314;-6.300;2023-01-30T16:02:28;102354.38;;;9.90;65.20
64368;BME280;50692;53.314;-6.300;2023-01-30T16:05:23;102356.91;;;9.94;65.24
64368;BME280;50692;53.314;-6.300;2023-01-30T16:08:18;102358.72;;;9.92;65.24
64368;BME280;50692;53.314;-6.300;2023-01-30T16:11:05;102348.16;;;9.92;65.35
64368;BME280;50692;53.314;-6.300;2023-01-30T16:13:51;102358.75;;;9.91;65.37
64368;BME280;50692;53.314;-6.300;2023-01-30T16:16:38;102355.31;;;9.87;65.79
64368;BME280;50692;53.314;-6.300;2023-01-30T16:19:32;102362.41;;;9.85;65.99
64368;BME280;50692;53.314;-6.300;2023-01-30T16:22:19;102358.97;;;9.81;66.04
64368;BME280;50692;53.314;-6.300;2023-01-30T16:25:24;102352.13;;;9.73;66.31
64368;BME280;50692;53.314;-6.300;2023-01-30T16:28:10;102354.81;;;9.71;66.94
64368;BME280;50692;53.314;-6.300;2023-01-30T16:31:02;102349.63;;;9.67;67.28
64368;BME280;50692;53.314;-6.300;2023-01-30T16:33:50;102349.66;;;9.65;67.09
64368;BME280;50692;53.314;-6.300;2023-01-30T16:36:39;102353.22;;;9.63;67.74
64368;BME280;50692;53.314;-6.300;2023-01-30T16:39:31;102343.66;;;9.58;68.19
64368;BME280;50692;53.314;-6.300;2023-01-30T16:48:27;102344.69;;;9.53;68.76
64368;BME280;50692;53.314;-6.300;2023-01-30T16:51:17;102363.06;;;9.56;69.03
64368;BME280;50692;53.314;-6.300;2023-01-30T16:54:04;102342.84;;;9.56;69.12
64368;BME280;50692;53.314;-6.300;2023-01-30T16:56:53;102344.69;;;9.51;69.76
64368;BME280;50692;53.314;-6.300;2023-01-30T16:59:40;102337.88;;;9.43;70.40
64368;BME280;50692;53.314;-6.300;2023-01-30T17:02:34;102344.03;;;9.42;70.70
64368;BME280;50692;53.314;-6.300;2023-01-30T17:11:40;102349.63;;;9.28;72.73
64368;BME280;50692;53.314;-6.300;2023-01-30T17:14:27;102349.69;;;9.25;72.96
64368;BME280;50692;53.314;-6.300;2023-01-30T17:17:16;102341.78;;;9.25;73.19
64368;BME280;50692;53.314;-6.300;2023-01-30T17:20:04;102337.31;;;9.27;73.10
64368;BME280;50692;53.314;-6.300;2023-01-30T17:22:50;102338.34;;;9.20;73.44
64368;BME280;50692;53.314;-6.300;2023-01-30T17:25:41;102335.59;;;9.26;73.11
64368;BME280;50692;53.314;-6.300;2023-01-30T17:28:27;102336.56;;;9.22;72.97
64368;BME280;50692;53.314;-6.300;2023-01-30T17:31:15;102337.31;;;9.27;72.70
64368;BME280;50692;53.314;-6.300;2023-01-30T17:34:01;102326.06;;;9.19;72.83
64368;BME280;50692;53.314;-6.300;2023-01-30T17:36:48;102321.75;;;9.15;72.91
64368;BME280;50692;53.314;-6.300;2023-01-30T17:39:35;102311.25;;;9.11;72.97